Flight Track Log - Related Links

Times and Time Zones

All times are in EDT time to prevent confusion due to time zone crossing. See the SWA499 flight status page for this flight to view local times or setup timezone preferences in your user account.

Time Position Orientation Groundspeed Altitude Reporting Facility
EDT Latitude Longitude Course Direction KTS MPH feet Rate Location/Type
Fri 02:40:50 PM 39.3617 -94.6747 35° Northeast 169 194 5,300  Level Kansas City Center
Fri 02:41:52 PM 39.3628 -94.6058 89° East 229 264 7,500 2,903 Climbing Kansas City Center
Fri 02:42:54 PM 39.3472 -94.4975 100° East 272 313 11,300 3,268 Climbing Kansas City Center
Fri 02:43:55 PM 39.3333 -94.3847 99° East 331 381 14,200 3,366 Climbing Kansas City Center
Fri 02:44:57 PM 39.3464 -94.2647 82° East 352 405 18,200 3,871 Climbing Kansas City Center
Fri 02:45:59 PM 39.3633 -94.1267 81° East 350 403 22,200 3,532 Climbing Kansas City Center
Fri 02:47:01 PM 39.3783 -94.0142 80° East 333 383 25,500 3,000 Climbing Kansas City Center
Fri 02:48:03 PM 39.3950 -93.8817 81° East 335 386 28,400 1,756 Climbing Kansas City Center
Fri 02:49:04 PM 39.4097 -93.7581 81° East 365 420 29,100 1,268 Climbing Kansas City Center
Fri 02:50:06 PM 39.4283 -93.6228 80° East 390 449 31,000 1,839 Climbing Kansas City Center
Fri 02:51:08 PM 39.4450 -93.4831 81° East 398 458 32,900 1,984 Climbing Kansas City Center
Fri 02:52:10 PM 39.4633 -93.3175 82° East 393 452 35,100 1,935 Climbing Kansas City Center
Fri 02:53:12 PM 39.4736 -93.1792 84° East 390 449 36,900 1,122 Climbing Kansas City Center
Fri 02:54:13 PM 39.4836 -93.0358 85° East 400 460 37,400 585 Climbing Kansas City Center
Fri 02:55:15 PM 39.4942 -92.8867 85° East 416 479 38,100 629 Climbing Kansas City Center
Fri 02:56:17 PM 39.5064 -92.7314 84° East 425 489 38,700 871 Climbing Kansas City Center
Fri 02:57:19 PM 39.5214 -92.5428 84° East 435 501 39,900 919 Climbing Kansas City Center
Fri 02:58:21 PM 39.5325 -92.3850 85° East 442 509 40,600 532 Climbing Kansas City Center
Fri 02:59:23 PM 39.5439 -92.2239 85° East 449 517 41,000 194 Climbing Kansas City Center
Fri 03:00:25 PM 39.5553 -92.0600 85° East 457 526 41,000  Level Kansas City Center
Fri 03:01:27 PM 39.5672 -91.8969 85° East 460 529 41,000  Level Kansas City Center
Fri 03:02:29 PM 39.5808 -91.7008 85° East 460 529 41,000  Level Kansas City Center
Fri 03:03:30 PM 39.5917 -91.5386 85° East 459 528 41,000  Level Kansas City Center
Fri 03:04:32 PM 39.6025 -91.3767 85° East 457 526 41,000  Level Kansas City Center
Fri 03:05:34 PM 39.6125 -91.2058 86° East 458 527 41,000  Level Kansas City Center
Fri 03:06:36 PM 39.6233 -91.0392 85° East 461 531 41,000  Level Kansas City Center
Fri 03:07:38 PM 39.6328 -90.8764 86° East 457 526 41,000  Level Kansas City Center
Fri 03:08:40 PM 39.6431 -90.7108 85° East 459 528 41,000  Level Kansas City Center
Fri 03:09:42 PM 39.6539 -90.5114 86° East 461 531 41,000  Level Kansas City Center
Fri 03:10:44 PM 39.6631 -90.3464 86° East 459 528 41,000  Level Kansas City Center
Fri 03:11:46 PM 39.6722 -90.1806 86° East 460 529 41,000  Level Kansas City Center
Fri 03:12:48 PM 39.6814 -90.0161 86° East 459 528 41,000  Level Kansas City Center
Fri 03:13:50 PM 39.6889 -89.8517 87° East 457 526 41,000  Level Kansas City Center
Fri 03:14:52 PM 39.6967 -89.6875 86° East 456 525 41,000  Level Kansas City Center
Fri 03:15:54 PM 39.7053 -89.5247 86° East 454 522 41,000  Level Kansas City Center
Fri 03:16:56 PM 39.7139 -89.3511 86° East 448 516 41,000  Level Kansas City Center
Fri 03:17:58 PM 39.7206 -89.1889 87° East 450 518 41,000  Level Kansas City Center
Fri 03:19:00 PM 39.7300 -88.9967 86° East 449 517 41,000  Level Kansas City Center
Fri 03:20:02 PM 39.7364 -88.8344 87° East 450 518 41,000  Level Kansas City Center
Fri 03:21:04 PM 39.7431 -88.6708 87° East 453 521 41,000  Level Kansas City Center
Fri 03:22:06 PM 39.7508 -88.5075 86° East 454 522 41,000  Level Kansas City Center
Fri 03:23:08 PM 39.7581 -88.3433 87° East 458 527 41,000  Level Kansas City Center
Fri 03:24:10 PM 39.7633 -88.1744 88° East 451 519 41,000  Level Kansas City Center
Fri 03:24:36 PM 39.7650 -88.0839 89° East 448 516 41,000  Level Indianapolis Center
Fri 03:25:38 PM 39.7708 -87.9247 87° East 444 511 41,000  Level Indianapolis Center
Fri 03:26:40 PM 39.7767 -87.7658 87° East 442 509 41,000  Level Indianapolis Center
Fri 03:27:43 PM 39.7814 -87.6083 88° East 440 506 41,000  Level Indianapolis Center
Fri 03:28:45 PM 39.7872 -87.4511 87° East 437 503 41,000  Level Indianapolis Center
Fri 03:29:47 PM 39.7942 -87.2939 87° East 438 504 41,000  Level Indianapolis Center
Fri 03:30:49 PM 39.8078 -87.1064 85° East 437 503 41,000  Level Indianapolis Center
Fri 03:31:50 PM 39.8167 -86.9489 86° East 436 502 41,000  Level Indianapolis Center
Fri 03:32:52 PM 39.8258 -86.7911 86° East 438 504 41,000  Level Indianapolis Center
Fri 03:33:54 PM 39.8347 -86.6347 86° East 435 501 41,000  Level Indianapolis Center
Fri 03:34:56 PM 39.8436 -86.4764 86° East 436 502 41,000  Level Indianapolis Center
Fri 03:35:58 PM 39.8519 -86.3036 86° East 436 502 41,000  Level Indianapolis Center
Fri 03:37:00 PM 39.8619 -86.1561 85° East 433 498 41,000  Level Indianapolis Center
Fri 03:38:02 PM 39.8683 -85.9989 87° East 433 498 41,000  Level Indianapolis Center
Fri 03:39:04 PM 39.8764 -85.8411 86° East 435 501 41,000  Level Indianapolis Center
Fri 03:40:06 PM 39.8861 -85.6528 86° East 435 501 41,000  Level Indianapolis Center
Fri 03:41:08 PM 39.8928 -85.4969 87° East 432 497 41,000  Level Indianapolis Center
Fri 03:42:10 PM 39.9000 -85.3397 87° East 434 499 41,000  Level Indianapolis Center
Fri 03:43:12 PM 39.9067 -85.1831 87° East 435 501 41,000  Level Indianapolis Center
Fri 03:44:14 PM 39.9136 -85.0269 87° East 433 498 41,000  Level Indianapolis Center
Fri 03:45:16 PM 39.9217 -84.8414 87° East 437 503 41,000  Level Indianapolis Center
Fri 03:46:18 PM 39.9278 -84.6814 87° East 438 504 41,000  Level Indianapolis Center
Fri 03:47:20 PM 39.9339 -84.5203 87° East 441 507 41,000  Level Indianapolis Center
Fri 03:48:21 PM 39.9403 -84.3594 87° East 442 509 41,000  Level Indianapolis Center
Fri 03:49:23 PM 39.9461 -84.1992 87° East 440 506 41,000  Level Indianapolis Center
Fri 03:50:25 PM 39.9511 -84.0367 88° East 443 510 41,000  Level Indianapolis Center
Fri 03:51:27 PM 39.9569 -83.8767 87° East 438 504 41,000  Level Indianapolis Center
Fri 03:52:29 PM 39.9625 -83.7164 87° East 437 503 41,000  Level Indianapolis Center
Fri 03:53:31 PM 39.9678 -83.5575 87° East 432 497 41,000  Level Indianapolis Center
Fri 03:54:33 PM 39.9733 -83.3944 87° East 435 501 41,000  Level Indianapolis Center
Fri 03:55:35 PM 39.9778 -83.2069 88° East 436 502 41,000  Level Indianapolis Center
Fri 03:56:37 PM 39.9811 -83.0483 88° East 434 499 41,000  Level Indianapolis Center
Fri 03:57:39 PM 39.9853 -82.8892 88° East 435 501 41,000  Level Indianapolis Center
Fri 03:58:41 PM 39.9889 -82.7303 88° East 434 499 41,000  Level Indianapolis Center
Fri 03:59:43 PM 39.9919 -82.5703 89° East 437 503 41,000  Level Indianapolis Center
Fri 04:00:45 PM 39.9958 -82.4103 88° East 438 504 41,000  Level Indianapolis Center
Fri 04:01:47 PM 39.9986 -82.2500 89° East 439 505 41,000  Level Indianapolis Center
Fri 04:02:49 PM 40.0017 -82.0897 89° East 438 504 41,000  Level Indianapolis Center
Fri 04:03:51 PM 40.0042 -81.9292 89° East 441 507 41,000  Level Indianapolis Center
Fri 04:04:53 PM 40.0067 -81.7461 89° East 438 504 41,000  Level Indianapolis Center
Fri 04:05:55 PM 40.0089 -81.5858 89° East 440 506 41,000  Level Indianapolis Center
Fri 04:06:56 PM 40.0106 -81.4250 89° East 443 510 41,000  Level Indianapolis Center
Fri 04:07:58 PM 40.0133 -81.2653 89° East 440 506 41,000  Level Indianapolis Center
Fri 04:09:00 PM 40.0147 -81.1050 89° East 441 507 41,000  Level Indianapolis Center
Fri 04:09:36 PM 40.0183 -81.0058 87° East 436 502 41,000  Level Cleveland Center
Fri 04:10:36 PM 40.0169 -80.8461 91° East 436 502 41,000  Level Cleveland Center
Fri 04:11:36 PM 39.9942 -80.6914 101° East 436 502 41,000  Level Cleveland Center
Fri 04:12:36 PM 39.9650 -80.5369 104° East 441 507 41,000  Level Cleveland Center
Fri 04:13:36 PM 39.9336 -80.3856 105° East 441 507 41,000 -50 Level Cleveland Center
Fri 04:14:36 PM 39.9019 -80.2286 105° East 441 507 40,900 -550 Descending Cleveland Center
Fri 04:15:36 PM 39.8700 -80.0744 105° East 436 502 39,900 -1,600 Descending Cleveland Center
Fri 04:16:36 PM 39.8358 -79.9125 105° East 443 510 37,700 -2,550 Descending Cleveland Center
Fri 04:17:36 PM 39.8036 -79.7561 105° East 449 517 34,800 -2,551 Descending Cleveland Center
Fri 04:19:23 PM 39.7450 -79.4750 105° East 450 518 30,600 -2,321 Descending Washington Center
Fri 04:20:24 PM 39.7122 -79.3222 106° East 439 505 28,300 -2,231 Descending Washington Center
Fri 04:21:24 PM 39.6811 -79.1775 106° East 429 494 26,100 -1,636 Descending Washington Center
Fri 04:22:25 PM 39.6539 -79.0389 104° East 418 481 25,000 -545 Descending Washington Center
Fri 04:23:25 PM 39.6186 -78.8917 107° East 398 458 25,000 -51 Level Washington Center
Fri 04:24:23 PM 39.5908 -78.7611 105° East 382 440 24,900 -1,109 Descending Washington Center
Fri 04:25:24 PM 39.5628 -78.6333 106° East 376 433 22,800 -1,967 Descending Washington Center
Fri 04:26:25 PM 39.5325 -78.5083 107° East 370 426 20,900 -1,884 Descending Washington Center
Fri 04:27:25 PM 39.5064 -78.3861 105° East 360 414 19,000 -1,850 Descending Washington Center
Fri 04:28:25 PM 39.4797 -78.2694 106° East 350 403 17,200 -1,983 Descending Washington Center
Fri 04:29:23 PM 39.4531 -78.1531 106° East 345 397 15,100 -1,160 Descending Washington Center
Fri 04:30:24 PM 39.4472 -78.0372 94° East 331 381 14,900 -101 Descending Washington Center
Fri 04:31:22 PM 39.4494 -77.9269 88° East 314 361 14,900  Level Washington Center
Fri 04:32:23 PM 39.4475 -77.8089 91° East 314 361 14,900  Level Washington Center
Fri 04:33:23 PM 39.4475 -77.6931 90° East 314 361 14,900 -496 Level Washington Center
Fri 04:34:24 PM 39.4453 -77.5803 91° East 314 361 13,900 -1,289 Descending Washington Center
Fri 04:35:24 PM 39.4447 -77.4728 90° East 302 348 12,300 -1,438 Descending Washington Center
Fri 04:36:25 PM 39.4464 -77.3681 89° East 296 341 11,000 -780 Descending Washington Center
Fri 04:37:04 PM 39.4500 -77.3000 86° East 280 322 11,000 -457 Level Potomac TRACON
Fri 04:38:10 PM 39.4667 -77.1833 79° East 284 327 10,200 -1,050 Descending Potomac TRACON
Fri 04:39:04 PM 39.4667 -77.1000 90° East 272 313 8,900 -1,474 Descending Potomac TRACON
Fri 04:40:04 PM 39.4667 -77.0000 90° East 269 310 7,400 -1,286 Descending Potomac TRACON
Fri 04:41:10 PM 39.4500 -76.9167 104° East 254 292 6,200 -1,323 Descending Potomac TRACON
Fri 04:42:11 PM 39.3833 -76.8833 159° South 249 287 4,600 -1,041 Descending Potomac TRACON
Fri 04:43:11 PM 39.3333 -76.8500 153° Southeast 214 246 4,100 -550 Descending Potomac TRACON
Fri 04:44:11 PM 39.2833 -76.8167 153° Southeast 213 245 3,500 -800 Descending Potomac TRACON
Fri 04:45:11 PM 39.2167 -76.8000 169° South 191 220 2,500 -1,000 Descending Potomac TRACON
Fri 04:46:05 PM 39.1833 -76.7667 142° Southeast 157 181 1,600 -900 Descending Potomac TRACON
Fri 04:47:11 PM 39.1833 -76.7167 90° East 124 143 700 -818 Descending Potomac TRACON
Fri 04:49:00 PM 39.1667 -76.6667 142° Southeast  Level FlightAware Approximate
Fri 04:56:00 PM 39.1754 -76.6683 142° Southeast  Level Estimated
Fri 04:57:00 PM 39.1754 -76.6683 142° Southeast  Level Estimated
Fri 04:58:00 PM 39.1754 -76.6683 142° Southeast  Level Estimated
Fri 04:59:00 PM 39.1754 -76.6683 142° Southeast  Level Estimated

Login

Don't have an account? Register now (free) for customized features, flight alerts, and more!